Bee Cave, Texas
Current Conditions -  °F | °C
As of 12:55 PM on Thursday 23 Oct 2014 (Local Time) from KRYW Reporting Station
Overcast Overcast  
Wind Chill: 76°   Ceiling: 10000
Heat Index: 76°   Visibility: 10mi
Dew Point: 60°   Wind: 3mph
Humidity: 58%   Direction: 270°W
Pressure: 30.16"   Gusts: NA
Location:  30.3763°N, 97.9464°W
Report Text: KRYW 231755Z AUTO 27003KT 10SM OVC100 24/16 A3016 RMK AO2 T02430156 10245 20185
Loading
Personal Weather Stations






























Interactive Weather Map
Tropical Storm Tracking
New forecast layout! Learn more

10-Day Weather Forecast

Advertisements
Track Severe Weather on mobile